Time;durP1;ratioP1;P1;durP2;ratioP2;P2;SDS_P1;SDS_P2;PMS_P1;PMS_P2;Temp;Humidity;BMP_temperature;BMP_pressure;BME280_temperature;BME280_humidity;BME280_pressure;Samples;Min_cycle;Max_cycle;Signal;HPM_P1;HPM_P2
2023/02/21 02:13:48;;;;;;;26.25;14.70;;;;;;;-146.25;100.00;52402.66;2072570;28;19930;-73
2023/02/21 02:15:04;;;;;;;27.85;14.85;;;;;;;-146.25;100.00;52429.03;2071974;28;30826;-73
2023/02/21 02:16:49;;;;;;;30.90;15.77;;;;;;;-146.25;100.00;52465.53;2072905;28;24435;-74
2023/02/21 02:18:15;;;;;;;29.35;15.85;;;;;;;-146.25;100.00;52453.34;2063902;28;29368;-74
2023/02/21 02:19:54;;;;;;;27.67;15.43;;;;;;;-146.25;100.00;52473.63;2067185;28;27637;-73
2023/02/21 02:21:47;;;;;;;23.00;15.13;;;;;;;-146.25;100.00;52412.81;2072093;28;24019;-73
2023/02/21 02:23:22;;;;;;;29.60;15.57;;;;;;;-146.25;100.00;52487.81;2071411;28;20045;-72
2023/02/21 02:24:33;;;;;;;30.50;15.82;;;;;;;-146.25;100.00;52441.19;2072271;28;29741;-74
2023/02/21 02:26:20;;;;;;;29.92;15.70;;;;;;;-146.25;100.00;52473.63;2064758;28;20069;-75
2023/02/21 02:27:43;;;;;;;28.42;15.32;;;;;;;-146.25;100.00;52437.13;2069869;28;20043;-74
2023/02/21 02:29:37;;;;;;;31.48;16.60;;;;;;;-146.25;100.00;52447.28;2063876;28;20861;-74
2023/02/21 02:31:20;;;;;;;30.55;16.13;;;;;;;-146.25;100.00;52431.06;2071437;28;20105;-74
2023/02/21 02:33:02;;;;;;;32.50;15.43;;;;;;;-146.25;100.00;52435.09;2064132;28;20635;-75
2023/02/21 02:34:42;;;;;;;28.10;15.68;;;;;;;-146.25;100.00;52461.47;2069144;28;24548;-75
2023/02/21 02:36:17;;;;;;;32.15;15.65;;;;;;;-146.25;100.00;52439.16;2072006;28;29557;-75
2023/02/21 02:37:44;;;;;;;26.80;15.05;;;;;;;-146.25;100.00;52445.25;2071971;28;20444;-75
2023/02/21 02:39:11;;;;;;;28.13;15.98;;;;;;;-146.25;100.00;52497.97;2064080;28;20039;-75
2023/02/21 02:40:41;;;;;;;35.08;16.33;;;;;;;-146.25;100.00;52437.13;2066965;28;21367;-75
2023/02/21 02:42:00;;;;;;;34.53;16.15;;;;;;;-146.25;100.00;52433.06;2063429;28;20174;-75
2023/02/21 02:43:23;;;;;;;32.90;16.00;;;;;;;-146.25;100.00;52485.81;2058076;28;20043;-75
2023/02/21 02:44:40;;;;;;;30.42;16.42;;;;;;;-146.25;100.00;52443.22;2067106;28;20958;-73
2023/02/21 02:46:09;;;;;;;27.77;15.52;;;;;;;-146.25;100.00;52427.00;2072225;28;20963;-73
2023/02/21 02:47:23;;;;;;;33.03;15.45;;;;;;;-146.25;100.00;52447.28;2072658;28;20046;-73
2023/02/21 02:48:50;;;;;;;35.67;16.98;;;;;;;-146.25;100.00;52445.25;2072105;28;28019;-73
2023/02/21 02:49:54;;;;;;;28.02;16.25;;;;;;;-146.25;100.00;52465.53;2071723;28;20946;-73
2023/02/21 02:50:59;;;;;;;32.33;16.95;;;;;;;-146.25;100.00;52455.38;2071745;28;20039;-75
2023/02/21 02:52:05;;;;;;;30.88;16.85;;;;;;;-146.25;100.00;52420.91;2063474;28;20054;-74
2023/02/21 02:53:07;;;;;;;33.15;17.70;;;;;;;-146.25;100.00;52445.25;2065028;28;20039;-75
2023/02/21 02:54:09;;;;;;;32.67;17.40;;;;;;;-146.25;100.00;52471.59;2063342;28;20844;-74
2023/02/21 02:55:35;;;;;;;35.38;17.73;;;;;;;-146.25;100.00;52461.47;2064285;28;24440;-75
2023/02/21 02:56:37;;;;;;;32.35;17.23;;;;;;;-146.25;100.00;52422.94;2072061;28;24151;-75
2023/02/21 02:57:43;;;;;;;32.75;17.85;;;;;;;-146.25;100.00;52473.63;2072105;28;20065;-75
2023/02/21 02:59:04;;;;;;;36.50;18.00;;;;;;;-146.25;100.00;52459.44;2071977;28;20038;-75
2023/02/21 03:00:09;;;;;;;29.15;17.63;;;;;;;-146.25;100.00;52441.19;2063864;28;20043;-75
2023/02/21 03:01:35;;;;;;;29.95;17.83;;;;;;;-146.25;100.00;52435.09;2064271;28;20871;-75
2023/02/21 03:03:21;;;;;;;36.92;18.08;;;;;;;-146.25;100.00;52441.19;2068186;28;25067;-75
2023/02/21 03:05:29;;;;;;;30.13;17.67;;;;;;;-146.25;100.00;52429.03;2063718;28;21113;-76
2023/02/21 03:07:19;;;;;;;29.48;16.95;;;;;;;-146.25;100.00;52473.63;2059301;28;20853;-75
2023/02/21 03:08:50;;;;;;;34.28;17.20;;;;;;;-146.25;100.00;52469.56;2052557;28;20047;-75
2023/02/21 03:10:23;;;;;;;35.80;18.60;;;;;;;-146.25;100.00;52441.19;2063769;28;27281;-75
2023/02/21 03:11:29;;;;;;;32.88;18.17;;;;;;;-146.25;100.00;52449.31;2055121;28;20043;-75
2023/02/21 03:13:09;;;;;;;32.50;17.95;;;;;;;-146.25;100.00;52392.53;2055528;28;20852;-76
2023/02/21 03:14:17;;;;;;;35.33;19.02;;;;;;;-146.25;100.00;52420.91;2055152;28;20095;-76
2023/02/21 03:15:27;;;;;;;34.33;18.15;;;;;;;-146.25;100.00;52455.38;2056280;28;20102;-75
2023/02/21 03:16:59;;;;;;;33.67;19.20;;;;;;;-146.25;100.00;52388.47;2062479;28;20086;-76
2023/02/21 03:18:17;;;;;;;31.00;18.70;;;;;;;-146.25;100.00;52439.16;2051948;28;21216;-75
2023/02/21 03:19:32;;;;;;;35.80;19.23;;;;;;;-146.25;100.00;52449.31;2056692;28;37513;-75
2023/02/21 03:20:37;;;;;;;35.95;20.02;;;;;;;-146.25;100.00;52453.34;2055573;28;20917;-75
2023/02/21 03:21:46;;;;;;;39.58;21.33;;;;;;;-146.25;100.00;52457.41;2055580;28;20097;-75
2023/02/21 03:22:51;;;;;;;36.40;19.73;;;;;;;-146.25;100.00;52424.97;2056620;28;31938;-75
2023/02/21 03:23:59;;;;;;;36.15;21.42;;;;;;;-146.25;100.00;52447.28;2063592;28;20034;-75
2023/02/21 03:25:03;;;;;;;40.65;21.58;;;;;;;-146.25;100.00;52445.25;2055910;28;20044;-75
2023/02/21 03:26:10;;;;;;;38.47;21.67;;;;;;;-146.25;100.00;52465.53;2063798;28;20073;-75
2023/02/21 03:27:19;;;;;;;38.83;20.90;;;;;;;-146.25;100.00;52441.19;2063361;28;20049;-75
2023/02/21 03:28:48;;;;;;;40.47;21.23;;;;;;;-146.25;100.00;52453.34;2060217;28;20149;-75
2023/02/21 03:29:58;;;;;;;46.00;21.58;;;;;;;-146.25;100.00;52495.94;2055471;28;20922;-75
2023/02/21 03:31:04;;;;;;;38.03;22.35;;;;;;;-146.25;100.00;52451.31;2055708;28;20047;-75
2023/02/21 03:33:25;;;;;;;44.55;21.70;;;;;;;-146.25;100.00;52469.56;2050327;28;20252;-75
2023/02/21 03:34:30;;;;;;;42.20;21.90;;;;;;;-146.25;100.00;52459.44;2063314;28;24283;-75
2023/02/21 03:35:32;;;;;;;42.25;22.60;;;;;;;-146.25;100.00;52457.41;2071326;28;21014;-75
2023/02/21 03:36:39;;;;;;;44.25;22.70;;;;;;;-146.25;100.00;52477.69;2071495;28;20823;-75
2023/02/21 03:37:45;;;;;;;43.08;21.45;;;;;;;-146.25;100.00;52463.50;2070757;28;20046;-75
2023/02/21 03:38:47;;;;;;;49.00;22.27;;;;;;;-146.25;100.00;52439.16;2071694;28;20038;-75
2023/02/21 03:39:49;;;;;;;41.15;22.50;;;;;;;-146.25;100.00;52477.69;2062852;28;20173;-75
2023/02/21 03:40:53;;;;;;;42.03;23.10;;;;;;;-146.25;100.00;52392.53;2055714;28;20035;-75
2023/02/21 03:41:56;;;;;;;37.90;22.70;;;;;;;-146.25;100.00;52437.13;2063735;28;20082;-75
2023/02/21 03:43:01;;;;;;;43.20;23.05;;;;;;;-146.25;100.00;52453.34;2063522;28;20152;-75
2023/02/21 03:44:07;;;;;;;39.92;21.63;;;;;;;-146.25;100.00;52437.13;2056174;28;20166;-75
2023/02/21 03:45:09;;;;;;;41.97;22.58;;;;;;;-146.25;100.00;52473.63;2063459;28;20955;-75
2023/02/21 03:46:11;;;;;;;41.88;23.20;;;;;;;-146.25;100.00;52443.22;2063293;28;20047;-75
2023/02/21 03:47:13;;;;;;;45.60;22.52;;;;;;;-146.25;100.00;52465.53;2055436;28;20093;-75
2023/02/21 03:48:15;;;;;;;44.30;22.88;;;;;;;-146.25;100.00;52461.47;2055574;28;20043;-75
2023/02/21 03:49:31;;;;;;;46.95;23.08;;;;;;;-146.25;100.00;52463.50;2064959;28;20051;-75
2023/02/21 03:50:33;;;;;;;44.92;22.17;;;;;;;-146.25;100.00;52477.69;2063041;28;20101;-75
2023/02/21 03:51:35;;;;;;;42.60;21.42;;;;;;;-146.25;100.00;52475.66;2063675;28;20027;-75
2023/02/21 03:52:37;;;;;;;41.38;21.92;;;;;;;-146.25;100.00;52465.53;2070981;28;20085;-75
2023/02/21 03:53:39;;;;;;;42.58;21.60;;;;;;;-146.25;100.00;52485.81;2072085;28;20042;-75
2023/02/21 03:54:42;;;;;;;45.75;22.35;;;;;;;-146.25;100.00;52441.19;2070996;28;20916;-74
2023/02/21 03:55:52;;;;;;;41.00;21.83;;;;;;;-146.25;100.00;52429.03;2072077;28;20939;-75
2023/02/21 03:57:00;;;;;;;36.47;19.73;;;;;;;-146.25;100.00;52453.34;2071551;28;20864;-74
2023/02/21 03:58:03;;;;;;;39.00;21.52;;;;;;;-146.25;100.00;52477.69;2071339;28;20153;-74
2023/02/21 03:59:07;;;;;;;40.95;22.25;;;;;;;-146.25;100.00;52457.41;2063441;28;20038;-74
2023/02/21 04:00:10;;;;;;;40.75;21.65;;;;;;;-146.25;100.00;52514.19;2062988;28;20843;-75
2023/02/21 04:01:23;;;;;;;42.35;22.25;;;;;;;-146.25;100.00;52461.47;2071470;28;20132;-74
2023/02/21 04:02:26;;;;;;;36.30;21.08;;;;;;;-146.25;100.00;52453.34;2071314;28;20165;-75
2023/02/21 04:03:28;;;;;;;41.17;21.63;;;;;;;-146.25;100.00;52457.41;2070860;28;20149;-74
2023/02/21 04:04:36;;;;;;;45.38;20.83;;;;;;;-146.25;100.00;52431.06;2063098;28;20054;-75
2023/02/21 04:05:43;;;;;;;42.90;21.95;;;;;;;-146.25;100.00;52477.69;2064049;28;20903;-74
2023/02/21 04:06:47;;;;;;;41.67;22.05;;;;;;;-146.25;100.00;52416.84;2072128;28;20046;-74
2023/02/21 04:07:48;;;;;;;44.90;21.33;;;;;;;-146.25;100.00;52447.28;2071296;28;20801;-74
2023/02/21 04:08:50;;;;;;;38.45;20.83;;;;;;;-146.25;100.00;52461.47;2071653;28;20050;-74
2023/02/21 04:09:56;;;;;;;40.20;22.15;;;;;;;-146.25;100.00;52461.47;2071280;28;21188;-74
2023/02/21 04:11:08;;;;;;;41.17;21.38;;;;;;;-146.25;100.00;52469.56;2071090;28;20043;-75
2023/02/21 04:12:13;;;;;;;47.25;22.52;;;;;;;-146.25;100.00;52469.56;2063486;28;20089;-75
2023/02/21 04:13:15;;;;;;;40.80;21.63;;;;;;;-146.25;100.00;52465.53;2063198;28;20181;-73
2023/02/21 04:14:20;;;;;;;39.20;21.38;;;;;;;-146.25;100.00;52441.19;2071221;28;20035;-74
2023/02/21 04:15:22;;;;;;;39.92;20.80;;;;;;;-146.25;100.00;52418.88;2063099;28;20181;-75
2023/02/21 04:16:24;;;;;;;44.25;21.60;;;;;;;-146.25;100.00;52475.66;2062796;28;24003;-75
2023/02/21 04:17:27;;;;;;;42.47;21.90;;;;;;;-146.25;100.00;52481.75;2071175;28;20051;-74
2023/02/21 04:18:33;;;;;;;37.92;21.27;;;;;;;-146.25;100.00;52441.19;2071591;28;20182;-74
2023/02/21 04:19:37;;;;;;;44.40;22.25;;;;;;;-146.25;100.00;52461.47;2070924;28;20122;-74
2023/02/21 04:20:40;;;;;;;41.13;20.48;;;;;;;-146.25;100.00;52457.41;2063333;28;20132;-74
2023/02/21 04:21:46;;;;;;;45.47;21.98;;;;;;;-146.25;100.00;52463.50;2063625;28;20047;-74
2023/02/21 04:22:48;;;;;;;38.88;21.50;;;;;;;-146.25;100.00;52461.47;2062898;28;20126;-74
2023/02/21 04:24:04;;;;;;;40.53;21.45;;;;;;;-146.25;100.00;52414.84;2065076;28;20297;-75
2023/02/21 04:25:07;;;;;;;43.92;22.27;;;;;;;-146.25;100.00;52459.44;2063300;28;20924;-74
2023/02/21 04:26:15;;;;;;;37.83;20.38;;;;;;;-146.25;100.00;52451.31;2056237;28;20047;-74
2023/02/21 04:27:23;;;;;;;38.35;21.20;;;;;;;-146.25;100.00;52431.06;2063557;28;20117;-74
2023/02/21 04:28:29;;;;;;;44.42;20.98;;;;;;;-146.25;100.00;52483.78;2070962;28;20069;-74
2023/02/21 04:29:31;;;;;;;41.78;22.73;;;;;;;-146.25;100.00;52443.22;2063244;28;20051;-74
2023/02/21 04:30:32;;;;;;;41.10;21.17;;;;;;;-146.25;100.00;52467.56;2055122;28;20054;-74
2023/02/21 04:31:37;;;;;;;44.55;20.70;;;;;;;-146.25;100.00;52433.06;2062684;28;20046;-75
2023/02/21 04:32:43;;;;;;;41.10;21.67;;;;;;;-146.25;100.00;52473.63;2063059;28;20046;-74
2023/02/21 04:33:48;;;;;;;43.40;20.67;;;;;;;-146.25;100.00;52455.38;2062947;28;21008;-74
2023/02/21 04:34:59;;;;;;;39.15;22.10;;;;;;;-146.25;100.00;52431.06;2057015;28;20102;-73
2023/02/21 04:36:01;;;;;;;41.25;21.92;;;;;;;-146.25;100.00;52461.47;2063116;28;20035;-74
2023/02/21 04:37:14;;;;;;;47.17;21.63;;;;;;;-146.25;100.00;52471.59;2063376;28;20039;-74
2023/02/21 04:38:17;;;;;;;44.35;21.48;;;;;;;-146.25;100.00;52477.69;2063579;28;20955;-75
2023/02/21 04:39:19;;;;;;;37.92;20.90;;;;;;;-146.25;100.00;52424.97;2071158;28;35651;-75
2023/02/21 04:40:23;;;;;;;38.47;21.38;;;;;;;-146.25;100.00;52418.88;2062934;28;20085;-74
2023/02/21 04:41:24;;;;;;;42.35;21.05;;;;;;;-146.25;100.00;52489.84;2063075;28;21505;-74
2023/02/21 04:42:27;;;;;;;40.60;20.75;;;;;;;-146.25;100.00;52437.13;2070941;28;20058;-74
2023/02/21 04:43:31;;;;;;;36.95;20.33;;;;;;;-146.25;100.00;52465.53;2071471;28;20057;-74
2023/02/21 04:44:33;;;;;;;37.97;19.70;;;;;;;-146.25;100.00;52445.25;2071307;28;23976;-74
2023/02/21 04:45:34;;;;;;;44.08;22.75;;;;;;;-146.25;100.00;52420.91;2072051;28;20820;-74
2023/02/21 04:46:36;;;;;;;40.28;21.48;;;;;;;-146.25;100.00;52424.97;2071147;28;20124;-75
2023/02/21 04:47:38;;;;;;;40.05;21.02;;;;;;;-146.25;100.00;52485.81;2071038;28;36747;-75
2023/02/21 04:48:40;;;;;;;41.35;20.98;;;;;;;-146.25;100.00;52441.19;2071845;28;20136;-74
2023/02/21 04:49:50;;;;;;;41.38;21.40;;;;;;;-146.25;100.00;52451.31;2070350;28;36131;-75
2023/02/21 04:50:52;;;;;;;39.10;20.67;;;;;;;-146.25;100.00;52516.22;2070968;28;31820;-75
2023/02/21 04:51:56;;;;;;;41.72;21.13;;;;;;;-146.25;100.00;52433.06;2071661;28;30885;-75
2023/02/21 04:52:58;;;;;;;35.40;20.02;;;;;;;-146.25;100.00;52441.19;2070771;28;37987;-74
2023/02/21 04:54:00;;;;;;;44.38;20.17;;;;;;;-146.25;100.00;52457.41;2072373;28;20827;-74
2023/02/21 04:55:01;;;;;;;38.47;20.60;;;;;;;-146.25;100.00;52481.75;2070994;28;32458;-75
2023/02/21 04:56:06;;;;;;;44.00;21.67;;;;;;;-146.25;100.00;52473.63;2071329;28;34131;-74
2023/02/21 04:57:07;;;;;;;37.67;20.90;;;;;;;-146.25;100.00;52481.75;2071965;28;20037;-74
2023/02/21 04:58:11;;;;;;;42.80;20.27;;;;;;;-146.25;100.00;52485.81;2071259;28;37886;-75
2023/02/21 04:59:13;;;;;;;39.53;20.73;;;;;;;-146.25;100.00;52481.75;2070852;28;34347;-75
2023/02/21 05:00:35;;;;;;;38.35;20.58;;;;;;;-146.25;100.00;52457.41;2071244;28;33947;-75
2023/02/21 05:01:39;;;;;;;36.03;19.50;;;;;;;-146.25;100.00;52453.34;2071532;28;34100;-74
2023/02/21 05:02:42;;;;;;;39.58;21.30;;;;;;;-146.25;100.00;52459.44;2071957;28;20041;-75
2023/02/21 05:03:44;;;;;;;36.85;20.52;;;;;;;-146.25;100.00;52477.69;2071181;28;37972;-75
2023/02/21 05:04:46;;;;;;;35.42;20.70;;;;;;;-146.25;100.00;52412.81;2071009;28;36278;-74
2023/02/21 05:05:48;;;;;;;39.08;22.65;;;;;;;-146.25;100.00;52429.03;2071882;28;20039;-75
2023/02/21 05:06:50;;;;;;;40.35;22.13;;;;;;;-146.25;100.00;52475.66;2071367;28;37574;-75
2023/02/21 05:07:51;;;;;;;41.03;20.98;;;;;;;-146.25;100.00;52437.13;2071406;28;32926;-75
2023/02/21 05:08:53;;;;;;;39.15;20.48;;;;;;;-146.25;100.00;52433.06;2072002;28;20035;-75
2023/02/21 05:09:55;;;;;;;39.53;20.08;;;;;;;-146.25;100.00;52491.88;2070373;28;37263;-75
2023/02/21 05:10:57;;;;;;;41.30;21.83;;;;;;;-146.25;100.00;52483.78;2070672;28;36829;-75
2023/02/21 05:11:59;;;;;;;42.10;21.38;;;;;;;-146.25;100.00;52455.38;2071621;28;20081;-75
2023/02/21 05:13:00;;;;;;;42.17;21.98;;;;;;;-146.25;100.00;52441.19;2071179;28;34955;-75
2023/02/21 05:14:02;;;;;;;44.58;22.77;;;;;;;-146.25;100.00;52457.41;2071061;28;34005;-75
2023/02/21 05:15:06;;;;;;;40.15;22.05;;;;;;;-146.25;100.00;52455.38;2071578;28;33311;-75
2023/02/21 05:16:08;;;;;;;38.80;22.48;;;;;;;-146.25;100.00;52473.63;2070527;28;31399;-75
2023/02/21 05:17:10;;;;;;;44.83;22.88;;;;;;;-146.25;100.00;52467.56;2070506;28;36522;-73
2023/02/21 05:18:11;;;;;;;45.30;22.52;;;;;;;-146.25;100.00;52463.50;2071088;28;34262;-74
2023/02/21 05:19:26;;;;;;;43.70;22.60;;;;;;;-146.25;100.00;52459.44;2071608;28;34301;-75
2023/02/21 05:20:27;;;;;;;47.63;22.02;;;;;;;-146.25;100.00;52443.22;2070618;28;33433;-75
2023/02/21 05:21:35;;;;;;;44.85;21.45;;;;;;;-146.25;100.00;52451.31;2070501;28;31952;-75
2023/02/21 05:22:41;;;;;;;41.10;22.30;;;;;;;-146.25;100.00;52445.25;2071513;28;33734;-75
2023/02/21 05:23:54;;;;;;;43.55;22.88;;;;;;;-146.25;100.00;52412.81;2072536;28;34048;-75
2023/02/21 05:24:56;;;;;;;40.78;21.65;;;;;;;-146.25;100.00;52457.41;2072983;28;34396;-75
2023/02/21 05:26:05;;;;;;;48.33;22.55;;;;;;;-146.25;100.00;52441.19;2073103;28;20036;-75
2023/02/21 05:27:10;;;;;;;39.15;21.35;;;;;;;-146.25;100.00;52483.78;2072898;28;34364;-75
2023/02/21 05:28:12;;;;;;;44.10;21.98;;;;;;;-146.25;100.00;52424.97;2072253;28;34681;-75
2023/02/21 05:29:17;;;;;;;40.33;22.67;;;;;;;-146.25;100.00;52481.75;2072825;28;31039;-75
2023/02/21 05:30:22;;;;;;;44.22;22.33;;;;;;;-146.25;100.00;52441.19;2072361;28;32995;-74
2023/02/21 05:31:24;;;;;;;40.63;22.63;;;;;;;-146.25;100.00;52447.28;2072957;28;20124;-74
2023/02/21 05:32:28;;;;;;;42.67;23.15;;;;;;;-146.25;100.00;52433.06;2072314;28;35886;-74
2023/02/21 05:33:32;;;;;;;44.30;22.77;;;;;;;-146.25;100.00;52455.38;2072589;28;25914;-74
2023/02/21 05:34:34;;;;;;;43.75;22.88;;;;;;;-146.25;100.00;52483.78;2071696;28;33443;-74
2023/02/21 05:35:36;;;;;;;40.60;23.40;;;;;;;-146.25;100.00;52416.84;2073337;28;22781;-75
2023/02/21 05:36:38;;;;;;;48.15;23.63;;;;;;;-146.25;100.00;52459.44;2072856;28;20038;-73
2023/02/21 05:37:42;;;;;;;45.00;23.15;;;;;;;-146.25;100.00;52481.75;2072234;28;31366;-75
2023/02/21 05:38:50;;;;;;;51.33;22.08;;;;;;;-146.25;100.00;52451.31;2072057;28;24294;-74
2023/02/21 05:39:52;;;;;;;50.92;24.42;;;;;;;-146.25;100.00;52427.00;2073112;28;31167;-74
2023/02/21 05:40:54;;;;;;;51.53;23.42;;;;;;;-146.25;100.00;52469.56;2072268;28;32283;-74
2023/02/21 05:41:58;;;;;;;45.65;23.45;;;;;;;-146.25;100.00;52449.31;2073037;28;20038;-74
2023/02/21 05:43:00;;;;;;;46.22;24.02;;;;;;;-146.25;100.00;52489.84;2073308;28;20895;-74
2023/02/21 05:44:04;;;;;;;50.80;23.20;;;;;;;-146.25;100.00;52451.31;2072699;28;38793;-73
2023/02/21 05:45:06;;;;;;;45.60;22.92;;;;;;;-146.25;100.00;52435.09;2071561;28;34334;-73
2023/02/21 05:46:18;;;;;;;53.30;25.02;;;;;;;-146.25;100.00;52449.31;2072201;28;33508;-73
2023/02/21 05:47:20;;;;;;;47.97;23.65;;;;;;;-146.25;100.00;52461.47;2071641;28;33182;-74
2023/02/21 05:48:22;;;;;;;52.47;23.88;;;;;;;-146.25;100.00;52453.34;2072152;28;34616;-74
2023/02/21 05:49:25;;;;;;;48.90;23.50;;;;;;;-146.25;100.00;52451.31;2072560;28;20045;-74
2023/02/21 05:50:29;;;;;;;48.22;23.80;;;;;;;-146.25;100.00;52463.50;2072181;28;38353;-74
2023/02/21 05:51:37;;;;;;;46.35;23.83;;;;;;;-146.25;100.00;52477.69;2072326;28;31418;-74
2023/02/21 05:52:38;;;;;;;49.65;23.45;;;;;;;-146.25;100.00;52457.41;2071904;28;33483;-74
2023/02/21 05:53:40;;;;;;;44.97;23.08;;;;;;;-146.25;100.00;52489.84;2071615;28;32877;-74
2023/02/21 05:54:43;;;;;;;52.60;23.90;;;;;;;-146.25;100.00;52455.38;2072333;28;35698;-74
2023/02/21 05:55:45;;;;;;;46.72;23.15;;;;;;;-146.25;100.00;52445.25;2072432;28;35772;-75
2023/02/21 05:56:49;;;;;;;47.22;24.40;;;;;;;-146.25;100.00;52441.19;2072539;28;33133;-75
2023/02/21 05:57:52;;;;;;;49.50;22.50;;;;;;;-146.25;100.00;52491.88;2072143;28;36826;-74
2023/02/21 05:58:54;;;;;;;49.05;22.73;;;;;;;-146.25;100.00;52465.53;2072208;28;38432;-74
2023/02/21 05:59:55;;;;;;;49.67;23.38;;;;;;;-146.25;100.00;52439.16;2071573;28;30711;-74
2023/02/21 06:00:59;;;;;;;39.78;22.15;;;;;;;-146.25;100.00;52445.25;2071954;28;32750;-74
2023/02/21 06:02:01;;;;;;;48.42;22.15;;;;;;;-146.25;100.00;52463.50;2072284;28;36506;-74
2023/02/21 06:03:03;;;;;;;41.78;22.50;;;;;;;-146.25;100.00;52447.28;2072876;28;20888;-74
2023/02/21 06:04:06;;;;;;;44.35;21.67;;;;;;;-146.25;100.00;52467.56;2072087;28;37153;-74
2023/02/21 06:05:10;;;;;;;43.03;20.45;;;;;;;-146.25;100.00;52455.38;2072028;28;32270;-74
2023/02/21 06:06:15;;;;;;;44.72;22.48;;;;;;;-146.25;100.00;52467.56;2072305;28;20132;-74
2023/02/21 06:07:17;;;;;;;44.22;22.38;;;;;;;-146.25;100.00;52481.75;2072495;28;34873;-74
2023/02/21 06:08:19;;;;;;;41.63;22.00;;;;;;;-146.25;100.00;52467.56;2072195;28;32338;-74
2023/02/21 06:09:21;;;;;;;48.65;21.35;;;;;;;-146.25;100.00;52469.56;2072591;28;34467;-74
2023/02/21 06:10:23;;;;;;;45.75;22.30;;;;;;;-146.25;100.00;52447.28;2072586;28;31916;-74
2023/02/21 06:11:29;;;;;;;44.35;20.58;;;;;;;-146.25;100.00;52453.34;2072743;28;20923;-74
2023/02/21 06:12:31;;;;;;;38.22;20.30;;;;;;;-146.25;100.00;52451.31;2072286;28;38298;-74
2023/02/21 06:13:32;;;;;;;40.40;20.75;;;;;;;-146.25;100.00;52433.06;2072445;28;33941;-74
2023/02/21 06:14:37;;;;;;;36.72;20.08;;;;;;;-146.25;100.00;52457.41;2071988;28;34007;-74
2023/02/21 06:15:40;;;;;;;44.85;20.42;;;;;;;-146.25;100.00;52416.84;2072367;28;34675;-73
2023/02/21 06:16:45;;;;;;;44.30;21.20;;;;;;;-146.25;100.00;52429.03;2072274;28;34167;-75
2023/02/21 06:17:47;;;;;;;44.83;20.08;;;;;;;-146.25;100.00;52469.56;2072254;28;34787;-75
2023/02/21 06:18:54;;;;;;;41.83;20.60;;;;;;;-146.25;100.00;52418.88;2072398;28;34014;-75
2023/02/21 06:19:56;;;;;;;39.00;20.38;;;;;;;-146.25;100.00;52487.81;2072277;28;37475;-75
2023/02/21 06:20:58;;;;;;;42.58;19.70;;;;;;;-146.25;100.00;52457.41;2072433;28;33923;-75
2023/02/21 06:21:59;;;;;;;40.63;20.15;;;;;;;-146.25;100.00;52429.03;2072683;28;20890;-75
2023/02/21 06:23:01;;;;;;;39.72;20.75;;;;;;;-146.25;100.00;52465.53;2072314;28;35176;-73
2023/02/21 06:24:05;;;;;;;37.60;19.40;;;;;;;-146.25;100.00;52461.47;2072183;28;33524;-73
2023/02/21 06:25:08;;;;;;;36.55;20.30;;;;;;;-146.25;100.00;52465.53;2072171;28;37088;-73
2023/02/21 06:26:13;;;;;;;42.45;19.60;;;;;;;-146.25;100.00;52485.81;2071959;28;34434;-73
2023/02/21 06:27:15;;;;;;;37.38;19.30;;;;;;;-146.25;100.00;52414.84;2073033;28;20914;-74
2023/02/21 06:28:16;;;;;;;38.72;20.15;;;;;;;-146.25;100.00;52429.03;2072108;28;37549;-74
2023/02/21 06:29:21;;;;;;;40.65;20.45;;;;;;;-146.25;100.00;52455.38;2072269;28;35882;-74
2023/02/21 06:30:22;;;;;;;35.38;18.95;;;;;;;-146.25;100.00;52483.78;2071898;28;34565;-74
2023/02/21 06:31:24;;;;;;;32.15;18.23;;;;;;;-146.25;100.00;52469.56;2071991;28;38923;-74
2023/02/21 06:32:26;;;;;;;38.63;18.80;;;;;;;-146.25;100.00;52441.19;2072845;28;20077;-74
2023/02/21 06:33:28;;;;;;;36.65;18.40;;;;;;;-146.25;100.00;52467.56;2071862;28;34838;-74
2023/02/21 06:34:33;;;;;;;40.63;18.65;;;;;;;-146.25;100.00;52461.47;2071806;28;33855;-74
2023/02/21 06:35:35;;;;;;;36.72;19.27;;;;;;;-146.25;100.00;52469.56;2071515;28;33165;-74
2023/02/21 06:36:38;;;;;;;36.33;18.65;;;;;;;-146.25;100.00;52441.19;2071384;28;38253;-74
2023/02/21 06:37:41;;;;;;;29.33;18.20;;;;;;;-146.25;100.00;52398.59;2072562;28;20046;-73
2023/02/21 06:38:45;;;;;;;37.63;18.90;;;;;;;-146.25;100.00;52479.72;2071909;28;37162;-73
2023/02/21 06:39:47;;;;;;;36.00;18.23;;;;;;;-146.25;100.00;52475.66;2072293;28;32084;-74
2023/02/21 06:40:49;;;;;;;38.58;18.58;;;;;;;-146.25;100.00;52463.50;2071916;28;38001;-73
2023/02/21 06:41:52;;;;;;;34.10;18.00;;;;;;;-146.25;100.00;52465.53;2072121;28;33742;-73
2023/02/21 06:42:56;;;;;;;35.00;17.80;;;;;;;-146.25;100.00;52475.66;2071732;28;37436;-73
2023/02/21 06:44:00;;;;;;;31.50;17.48;;;;;;;-146.25;100.00;52424.97;2072835;28;20158;-73
2023/02/21 06:45:04;;;;;;;39.28;17.83;;;;;;;-146.25;100.00;52455.38;2072671;28;20046;-73
2023/02/21 06:46:06;;;;;;;36.85;18.27;;;;;;;-146.25;100.00;52427.00;2072236;28;35234;-73
2023/02/21 06:47:08;;;;;;;36.05;17.25;;;;;;;-146.25;100.00;52445.25;2072586;28;20117;-73
2023/02/21 06:48:15;;;;;;;30.73;17.25;;;;;;;-146.25;100.00;52429.03;2071995;28;36652;-73
2023/02/21 06:49:17;;;;;;;39.20;17.83;;;;;;;-146.25;100.00;52459.44;2063756;28;20622;-74
2023/02/21 06:50:18;;;;;;;30.13;17.42;;;;;;;-146.25;100.00;52479.72;2063682;28;32154;-74
2023/02/21 06:51:27;;;;;;;35.33;17.13;;;;;;;-146.25;100.00;52445.25;2071893;28;36800;-73
2023/02/21 06:52:30;;;;;;;32.10;16.85;;;;;;;-146.25;100.00;52459.44;2071645;28;37927;-75
2023/02/21 06:53:34;;;;;;;34.33;17.48;;;;;;;-146.25;100.00;52453.34;2071771;28;33696;-74
2023/02/21 06:54:36;;;;;;;35.05;17.00;;;;;;;-146.25;100.00;52431.06;2072293;28;37965;-75
2023/02/21 06:55:41;;;;;;;26.85;16.35;;;;;;;-146.25;100.00;52479.72;2071951;28;33581;-75
2023/02/21 06:56:43;;;;;;;33.10;17.85;;;;;;;-146.25;100.00;52433.06;2072013;28;36371;-75
2023/02/21 06:57:45;;;;;;;33.80;17.60;;;;;;;-146.25;100.00;52457.41;2071710;28;27416;-75
2023/02/21 06:58:46;;;;;;;33.45;16.98;;;;;;;-146.25;100.00;52461.47;2072450;28;32725;-75
2023/02/21 06:59:48;;;;;;;34.22;17.42;;;;;;;-146.25;100.00;52437.13;2071808;28;35702;-75
2023/02/21 07:00:50;;;;;;;31.73;17.13;;;;;;;-146.25;100.00;52475.66;2072225;28;30574;-74
2023/02/21 07:01:51;;;;;;;35.25;17.20;;;;;;;-146.25;100.00;52447.28;2070834;28;37052;-75
2023/02/21 07:02:53;;;;;;;28.70;16.13;;;;;;;-146.25;100.00;52455.38;2069950;28;36262;-75
2023/02/21 07:03:57;;;;;;;32.03;16.30;;;;;;;-146.25;100.00;52479.72;2069398;28;35776;-74
2023/02/21 07:04:59;;;;;;;31.33;17.70;;;;;;;-146.25;100.00;52465.53;2071455;28;36926;-75
2023/02/21 07:06:00;;;;;;;32.78;16.73;;;;;;;-146.25;100.00;52441.19;2071307;28;36142;-74
2023/02/21 07:07:02;;;;;;;35.08;17.30;;;;;;;-146.25;100.00;52461.47;2072253;28;33378;-73
2023/02/21 07:08:06;;;;;;;33.83;17.27;;;;;;;-146.25;100.00;52487.81;2068658;28;35096;-74
2023/02/21 07:09:08;;;;;;;34.38;16.88;;;;;;;-146.25;100.00;52497.97;2072761;28;20031;-75
2023/02/21 07:10:09;;;;;;;26.38;15.60;;;;;;;-146.25;100.00;52459.44;2071744;28;32681;-75
2023/02/21 07:11:11;;;;;;;34.28;17.05;;;;;;;-146.25;100.00;52459.44;2071035;28;35027;-75
2023/02/21 07:12:13;;;;;;;33.92;15.93;;;;;;;-146.25;100.00;52447.28;2068982;28;31992;-75
2023/02/21 07:13:15;;;;;;;30.48;17.45;;;;;;;-146.25;100.00;52451.31;2070132;28;35250;-75
2023/02/21 07:14:17;;;;;;;32.25;16.17;;;;;;;-146.25;100.00;52433.06;2071852;28;35979;-77
2023/02/21 07:15:19;;;;;;;28.98;16.85;;;;;;;-146.25;100.00;52437.13;2071757;28;24717;-77